createdAt,value
2018-05-03T00:03:39.344Z,12.42
2018-05-03T00:08:34.304Z,12.43
2018-05-03T00:13:30.410Z,12.45
2018-05-03T00:23:34.095Z,12.29
2018-05-03T00:28:29.504Z,12.35
2018-05-03T00:33:31.756Z,12.39
2018-05-03T00:38:27.757Z,12.29
2018-05-03T00:43:29.651Z,12.46
2018-05-03T00:48:24.942Z,12.57
2018-05-03T00:58:25.255Z,12.43
2018-05-03T01:03:25.953Z,12.39
2018-05-03T01:08:20.774Z,12.49
2018-05-03T01:13:20.457Z,12.43
2018-05-03T01:18:19.067Z,12.42
2018-05-03T01:23:14.121Z,12.32
2018-05-03T01:28:09.833Z,12.31
2018-05-03T01:33:06.700Z,12.10
2018-05-03T01:38:02.104Z,12.10
2018-05-03T01:42:58.653Z,12.15
2018-05-03T01:47:53.924Z,12.29
2018-05-03T01:52:50.200Z,12.10
2018-05-03T01:57:45.810Z,12.17
2018-05-03T02:02:41.532Z,12.12
2018-05-03T02:07:37.559Z,12.15
2018-05-03T02:12:34.032Z,12.06
2018-05-03T02:17:29.859Z,11.83
2018-05-03T02:22:29.522Z,11.80
2018-05-03T02:27:28.448Z,11.75
2018-05-03T02:32:23.372Z,11.66
2018-05-03T02:37:19.807Z,11.95
2018-05-03T02:42:19.720Z,12.03
2018-05-03T02:47:14.923Z,12.13
2018-05-03T02:52:11.460Z,12.24
2018-05-03T02:57:07.403Z,12.42
2018-05-03T03:02:03.114Z,12.40
2018-05-03T03:06:59.052Z,12.40
2018-05-03T03:11:55.629Z,12.39
2018-05-03T03:16:52.459Z,12.53
2018-05-03T03:21:48.060Z,12.47
2018-05-03T03:26:43.830Z,12.36
2018-05-03T03:31:40.859Z,12.39
2018-05-03T03:36:36.360Z,12.31
2018-05-03T03:41:32.208Z,12.25
2018-05-03T03:46:28.127Z,12.36
2018-05-03T03:51:23.943Z,12.36
2018-05-03T03:56:21.115Z,12.37
2018-05-03T04:01:17.440Z,12.39
2018-05-03T04:06:13.225Z,12.25
2018-05-03T04:11:12.988Z,12.13
2018-05-03T04:16:08.856Z,11.88
2018-05-03T04:21:04.193Z,11.91
2018-05-03T04:26:05.260Z,11.73
2018-05-03T04:31:04.026Z,11.57
2018-05-03T04:36:02.812Z,11.50
2018-05-03T04:40:57.600Z,11.47
2018-05-03T04:45:57.240Z,11.50
2018-05-03T04:50:56.492Z,11.60
2018-05-03T04:55:51.506Z,11.48
2018-05-03T05:00:48.300Z,11.48
2018-05-03T05:05:43.618Z,11.47
2018-05-03T05:10:44.790Z,11.52
2018-05-03T05:15:44.064Z,11.50
2018-05-03T05:20:40.331Z,11.48
2018-05-03T05:25:35.783Z,11.55
2018-05-03T05:30:32.933Z,11.47
2018-05-03T05:35:29.774Z,11.52
2018-05-03T05:40:25.977Z,11.57
2018-05-03T05:45:21.733Z,11.57
2018-05-03T05:50:23.123Z,11.73
2018-05-03T05:55:18.042Z,11.73
2018-05-03T06:00:18.009Z,11.83
2018-05-03T06:05:16.987Z,12.12
2018-05-03T06:10:15.990Z,12.18
2018-05-03T06:15:12.150Z,12.12
2018-05-03T06:20:07.545Z,12.04
2018-05-03T06:25:04.541Z,12.31
2018-05-03T06:30:03.949Z,12.29
2018-05-03T06:34:59.068Z,12.54
2018-05-03T06:39:55.532Z,12.57
2018-05-03T06:44:51.234Z,12.55
2018-05-03T06:49:48.167Z,12.87
2018-05-03T06:54:43.568Z,12.54
2018-05-03T06:59:40.395Z,12.90
2018-05-03T07:04:37.040Z,13.05
2018-05-03T07:09:32.810Z,13.35
2018-05-03T07:14:33.307Z,13.44
2018-05-03T07:19:28.679Z,13.67
2018-05-03T07:24:26.055Z,13.89
2018-05-03T07:29:22.628Z,13.54
2018-05-03T07:34:18.342Z,13.44
2018-05-03T07:39:15.213Z,13.75
2018-05-03T07:44:15.375Z,14.62
2018-05-03T07:49:15.120Z,14.59
2018-05-03T07:54:11.662Z,14.68
2018-05-03T07:59:08.377Z,16.13
2018-05-03T08:04:08.984Z,15.49
2018-05-03T08:09:03.287Z,14.88
2018-05-03T08:13:59.028Z,15.24
2018-05-03T08:18:58.741Z,15.62
2018-05-03T08:23:55.339Z,16.96
2018-05-03T08:28:56.025Z,16.60
2018-05-03T08:33:51.760Z,16.78
2018-05-03T08:38:48.879Z,17.29
2018-05-03T08:43:44.341Z,17.23
2018-05-03T08:48:39.654Z,16.31
2018-05-03T08:53:39.581Z,15.52
2018-05-03T08:58:34.226Z,15.94
2018-05-03T09:03:34.752Z,16.01
2018-05-03T09:08:29.153Z,16.17
2018-05-03T09:13:29.359Z,16.24
2018-05-03T09:18:24.390Z,15.91
2018-05-03T09:23:20.368Z,16.36
2018-05-03T09:28:20.293Z,15.72
2018-05-03T09:33:14.752Z,15.37
2018-05-03T09:38:14.382Z,15.68
2018-05-03T09:43:09.704Z,15.76
2018-05-03T09:48:08.133Z,17.24
2018-05-03T09:53:09.020Z,17.23
2018-05-03T09:58:03.867Z,17.70
2018-05-03T10:03:00.489Z,18.25
2018-05-03T10:07:57.746Z,18.62
2018-05-03T10:12:53.746Z,17.68
2018-05-03T10:17:50.458Z,17.85
2018-05-03T10:22:46.971Z,18.43
2018-05-03T10:27:46.888Z,17.85
2018-05-03T10:32:46.386Z,18.37
2018-05-03T10:37:46.899Z,18.45
2018-05-03T10:42:45.390Z,19.00
2018-05-03T10:47:45.452Z,19.54
2018-05-03T10:52:46.473Z,21.09
2018-05-03T10:57:42.838Z,21.07
2018-05-03T11:02:40.062Z,20.95
2018-05-03T11:07:35.115Z,19.55
2018-05-03T11:12:30.146Z,19.04
2018-05-03T11:17:25.591Z,18.18
2018-05-03T11:22:22.330Z,18.43
2018-05-03T11:27:23.008Z,19.48
2018-05-03T11:32:18.280Z,19.48
2018-05-03T11:37:14.566Z,18.55
2018-05-03T11:42:13.315Z,17.89
2018-05-03T11:47:07.348Z,17.48
2018-05-03T11:52:05.750Z,17.94
2018-05-03T11:57:01.135Z,17.97
2018-05-03T12:01:55.372Z,17.42
2018-05-03T12:06:50.324Z,16.78
2018-05-03T12:11:49.697Z,16.60
2018-05-03T12:16:48.388Z,16.66
2018-05-03T12:21:43.524Z,16.99
2018-05-03T12:26:46.245Z,16.72
2018-05-03T12:31:42.251Z,17.86
2018-05-03T12:36:37.000Z,17.80
2018-05-03T12:41:33.102Z,17.97
2018-05-03T12:46:29.079Z,17.90
2018-05-03T12:51:29.467Z,18.47
2018-05-03T12:56:29.556Z,19.08
2018-05-03T13:01:29.714Z,19.02
2018-05-03T13:06:25.926Z,19.82
2018-05-03T13:11:22.261Z,20.37
2018-05-03T13:16:21.867Z,20.74
2018-05-03T13:21:18.396Z,20.65
2018-05-03T13:26:17.894Z,19.12
2018-05-03T13:31:15.432Z,18.49
2018-05-03T13:36:13.692Z,18.38
2018-05-03T13:41:12.523Z,18.31
2018-05-03T13:46:07.036Z,18.18
2018-05-03T13:51:03.774Z,17.80
2018-05-03T13:55:59.945Z,17.90
2018-05-03T14:00:55.857Z,17.98
2018-05-03T14:05:52.883Z,18.05
2018-05-03T14:10:48.458Z,17.83
2018-05-03T14:15:48.431Z,17.51
2018-05-03T14:20:44.778Z,17.42
2018-05-03T14:25:40.588Z,17.57
2018-05-03T14:30:36.499Z,17.80
2018-05-03T14:35:32.691Z,18.19
2018-05-03T14:40:32.772Z,18.13
2018-05-03T14:45:28.559Z,17.33
2018-05-03T14:50:23.839Z,17.20
2018-05-03T14:55:19.532Z,17.33
2018-05-03T15:00:15.549Z,17.65
2018-05-03T15:05:16.513Z,17.49
2018-05-03T15:10:12.351Z,17.68
2018-05-03T15:15:07.736Z,17.48
2018-05-03T15:20:08.601Z,17.74
2018-05-03T15:25:03.486Z,17.71
2018-05-03T15:29:59.905Z,17.76
2018-05-03T15:34:56.538Z,17.74
2018-05-03T15:39:52.588Z,18.05
2018-05-03T15:44:48.626Z,18.00
2018-05-03T15:49:44.872Z,18.19
2018-05-03T15:54:44.806Z,18.10
2018-05-03T15:59:43.727Z,18.08
2018-05-03T16:04:38.597Z,17.33
2018-05-03T16:09:33.884Z,16.79
2018-05-03T16:14:29.196Z,17.09
2018-05-03T16:19:28.828Z,17.12
2018-05-03T16:24:23.479Z,16.87
2018-05-03T16:29:19.136Z,16.60
2018-05-03T16:34:14.578Z,16.68
2018-05-03T16:39:14.517Z,16.39
2018-05-03T16:44:10.454Z,16.50
2018-05-03T16:49:09.942Z,16.39
2018-05-03T16:54:04.906Z,16.50
2018-05-03T16:59:00.746Z,16.41
2018-05-03T17:03:56.431Z,16.47
2018-05-03T17:08:52.364Z,16.42
2018-05-03T17:13:48.356Z,16.36
2018-05-03T17:18:44.230Z,16.42
2018-05-03T17:23:40.178Z,16.53
2018-05-03T17:28:40.126Z,16.41
2018-05-03T17:33:39.285Z,16.47
2018-05-03T17:38:34.922Z,16.28
2018-05-03T17:43:35.039Z,16.23
2018-05-03T17:48:29.908Z,16.29
2018-05-03T17:53:25.768Z,16.28
2018-05-03T17:58:21.922Z,16.28
2018-05-03T18:03:17.687Z,16.00
2018-05-03T18:08:13.525Z,15.90
2018-05-03T18:13:09.388Z,15.84
2018-05-03T18:18:06.090Z,15.72
2018-05-03T18:23:01.631Z,15.64
2018-05-03T18:27:57.698Z,15.57
2018-05-03T18:32:58.436Z,15.44
2018-05-03T18:37:54.071Z,15.33
2018-05-03T18:42:54.092Z,15.17
2018-05-03T18:47:49.117Z,15.11
2018-05-03T18:52:48.718Z,14.85
2018-05-03T18:57:43.401Z,14.70
2018-05-03T19:02:39.017Z,14.66
2018-05-03T19:07:34.822Z,14.62
2018-05-03T19:12:30.937Z,14.51
2018-05-03T19:17:26.851Z,14.26
2018-05-03T19:22:22.497Z,14.22
2018-05-03T19:27:18.220Z,14.08
2018-05-03T19:32:14.157Z,13.85
2018-05-03T19:37:14.041Z,13.81
2018-05-03T19:42:08.960Z,13.83
2018-05-03T19:47:08.739Z,13.63
2018-05-03T19:52:04.441Z,13.57
2018-05-03T19:57:00.480Z,13.39
2018-05-03T20:01:56.218Z,13.38
2018-05-03T20:06:52.327Z,13.33
2018-05-03T20:11:51.814Z,13.19
2018-05-03T20:16:47.195Z,13.00
2018-05-03T20:21:43.830Z,12.90
2018-05-03T20:26:39.228Z,12.78
2018-05-03T20:31:38.886Z,12.72
2018-05-03T20:36:35.099Z,12.55
2018-05-03T20:41:30.424Z,12.43
2018-05-03T20:46:30.329Z,12.37
2018-05-03T20:51:25.355Z,12.24
2018-05-03T20:56:21.137Z,12.20
2018-05-03T21:01:16.958Z,11.99
2018-05-03T21:06:13.566Z,11.87
2018-05-03T21:11:10.327Z,11.83
2018-05-03T21:16:06.904Z,11.73
2018-05-03T21:21:03.025Z,11.55
2018-05-03T21:26:03.416Z,11.48
2018-05-03T21:30:58.154Z,11.48
2018-05-03T21:35:57.847Z,11.48
2018-05-03T21:40:52.413Z,11.44
2018-05-03T21:45:48.343Z,11.30
2018-05-03T21:50:45.141Z,11.17
2018-05-03T21:55:40.973Z,11.11
2018-05-03T22:00:36.844Z,11.07
2018-05-03T22:05:36.384Z,11.04
2018-05-03T22:10:32.238Z,10.92
2018-05-03T22:15:28.564Z,10.93
2018-05-03T22:20:23.960Z,10.96
2018-05-03T22:25:24.765Z,10.78
2018-05-03T22:30:19.386Z,10.79
2018-05-03T22:35:16.122Z,10.76
2018-05-03T22:40:15.634Z,10.57
2018-05-03T22:45:11.846Z,10.54
2018-05-03T22:50:07.310Z,10.40
2018-05-03T22:55:04.800Z,10.33
2018-05-03T23:00:00.902Z,10.12
2018-05-03T23:04:56.273Z,10.09
2018-05-03T23:09:52.876Z," 9.95"
2018-05-03T23:14:48.660Z,10.05
2018-05-03T23:19:45.110Z,10.15
2018-05-03T23:24:41.453Z," 9.94"
2018-05-03T23:29:36.783Z," 9.92"
2018-05-03T23:34:32.908Z," 9.79"
2018-05-03T23:39:29.570Z," 9.76"
2018-05-03T23:44:26.081Z," 9.84"
2018-05-03T23:49:21.872Z," 9.92"
2018-05-03T23:54:18.667Z," 9.83"
2018-05-03T23:59:18.013Z," 9.66"
